Capistrano Beach, California
Current Conditions -  °F | °C
As of 12:53 PM on Saturday 25 Oct 2014 (Local Time) from KSNA Reporting Station
Scattered Clouds Scattered Clouds  
Wind Chill: 78°   Ceiling: Unl
Heat Index: 79°   Visibility: 10mi
Dew Point: 57°   Wind: 8mph
Humidity: 48%   Direction: 230°SW
Pressure: 30.04"   Gusts: NA
Location:  33.46°N, 117.68°W
Report Text: KSNA 251953Z 23007KT 10SM FEW011 SCT100 SCT250 26/14 A3004 RMK AO2 SLP170 T02560139
Loading
Personal Weather Stations






























Interactive Weather Map
Tropical Storm Tracking
New forecast layout! Learn more

10-Day Weather Forecast

Advertisements
Track Severe Weather on mobile